sensor_id;sensor_type;location;lat;lon;timestamp;P1;durP1;ratioP1;P2;durP2;ratioP2
51594;SDS011;37677;53.254;6.594;2023-08-17T00:01:16;4.72;;;2.65;;
51594;SDS011;37677;53.254;6.594;2023-08-17T00:06:17;5.55;;;2.90;;
51594;SDS011;37677;53.254;6.594;2023-08-17T00:08:44;4.88;;;2.70;;
51594;SDS011;37677;53.254;6.594;2023-08-17T00:11:10;5.82;;;2.70;;
51594;SDS011;37677;53.254;6.594;2023-08-17T00:13:56;4.07;;;2.72;;
51594;SDS011;37677;53.254;6.594;2023-08-17T00:16:27;6.68;;;2.55;;
51594;SDS011;37677;53.254;6.594;2023-08-17T00:18:54;7.07;;;2.95;;
51594;SDS011;37677;53.254;6.594;2023-08-17T00:21:39;5.25;;;2.90;;
51594;SDS011;37677;53.254;6.594;2023-08-17T00:24:38;3.95;;;2.58;;
51594;SDS011;37677;53.254;6.594;2023-08-17T00:27:08;5.45;;;2.72;;
51594;SDS011;37677;53.254;6.594;2023-08-17T00:29:36;7.65;;;2.60;;
51594;SDS011;37677;53.254;6.594;2023-08-17T00:32:04;4.68;;;2.58;;
51594;SDS011;37677;53.254;6.594;2023-08-17T00:34:34;6.50;;;2.80;;
51594;SDS011;37677;53.254;6.594;2023-08-17T00:37:03;5.55;;;2.50;;
51594;SDS011;37677;53.254;6.594;2023-08-17T00:39:36;6.57;;;2.63;;
51594;SDS011;37677;53.254;6.594;2023-08-17T00:42:10;4.28;;;2.22;;
51594;SDS011;37677;53.254;6.594;2023-08-17T00:44:37;4.80;;;2.42;;
51594;SDS011;37677;53.254;6.594;2023-08-17T00:47:03;4.93;;;2.65;;
51594;SDS011;37677;53.254;6.594;2023-08-17T00:49:30;6.50;;;2.80;;
51594;SDS011;37677;53.254;6.594;2023-08-17T00:51:59;4.72;;;2.85;;
51594;SDS011;37677;53.254;6.594;2023-08-17T00:54:26;4.88;;;2.63;;
51594;SDS011;37677;53.254;6.594;2023-08-17T00:56:53;10.15;;;2.78;;
51594;SDS011;37677;53.254;6.594;2023-08-17T00:59:22;5.80;;;2.75;;
51594;SDS011;37677;53.254;6.594;2023-08-17T01:01:52;4.95;;;2.72;;
51594;SDS011;37677;53.254;6.594;2023-08-17T01:04:41;4.47;;;2.50;;
51594;SDS011;37677;53.254;6.594;2023-08-17T01:07:22;4.15;;;2.42;;
51594;SDS011;37677;53.254;6.594;2023-08-17T01:09:48;4.50;;;2.53;;
51594;SDS011;37677;53.254;6.594;2023-08-17T01:12:21;6.50;;;2.85;;
51594;SDS011;37677;53.254;6.594;2023-08-17T01:15:00;5.65;;;2.83;;
51594;SDS011;37677;53.254;6.594;2023-08-17T01:17:29;5.68;;;2.75;;
51594;SDS011;37677;53.254;6.594;2023-08-17T01:19:59;3.95;;;2.38;;
51594;SDS011;37677;53.254;6.594;2023-08-17T01:22:32;6.28;;;2.80;;
51594;SDS011;37677;53.254;6.594;2023-08-17T01:25:00;4.53;;;2.30;;
51594;SDS011;37677;53.254;6.594;2023-08-17T01:27:32;6.95;;;2.85;;
51594;SDS011;37677;53.254;6.594;2023-08-17T01:29:59;5.65;;;2.60;;
51594;SDS011;37677;53.254;6.594;2023-08-17T01:38:04;4.82;;;2.50;;
51594;SDS011;37677;53.254;6.594;2023-08-17T01:43:25;4.88;;;2.90;;
51594;SDS011;37677;53.254;6.594;2023-08-17T01:45:56;5.38;;;2.45;;
51594;SDS011;37677;53.254;6.594;2023-08-17T01:48:29;4.72;;;2.30;;
51594;SDS011;37677;53.254;6.594;2023-08-17T01:50:58;6.35;;;2.88;;
51594;SDS011;37677;53.254;6.594;2023-08-17T01:53:24;4.90;;;2.60;;
51594;SDS011;37677;53.254;6.594;2023-08-17T01:55:51;4.88;;;2.60;;
51594;SDS011;37677;53.254;6.594;2023-08-17T01:58:19;7.03;;;3.05;;
51594;SDS011;37677;53.254;6.594;2023-08-17T02:00:45;4.72;;;2.38;;
51594;SDS011;37677;53.254;6.594;2023-08-17T02:03:11;6.30;;;2.55;;
51594;SDS011;37677;53.254;6.594;2023-08-17T02:05:38;7.03;;;2.72;;
51594;SDS011;37677;53.254;6.594;2023-08-17T02:08:06;4.18;;;2.30;;
51594;SDS011;37677;53.254;6.594;2023-08-17T02:10:33;4.93;;;2.63;;
51594;SDS011;37677;53.254;6.594;2023-08-17T02:13:01;5.60;;;2.65;;
51594;SDS011;37677;53.254;6.594;2023-08-17T02:15:32;5.00;;;2.50;;
51594;SDS011;37677;53.254;6.594;2023-08-17T02:18:06;4.43;;;2.50;;
51594;SDS011;37677;53.254;6.594;2023-08-17T02:20:32;7.70;;;2.97;;
51594;SDS011;37677;53.254;6.594;2023-08-17T02:23:01;5.68;;;2.80;;
51594;SDS011;37677;53.254;6.594;2023-08-17T02:25:39;4.75;;;2.70;;
51594;SDS011;37677;53.254;6.594;2023-08-17T02:28:06;5.72;;;3.00;;
51594;SDS011;37677;53.254;6.594;2023-08-17T02:30:35;6.35;;;2.28;;
51594;SDS011;37677;53.254;6.594;2023-08-17T02:33:04;5.38;;;2.42;;
51594;SDS011;37677;53.254;6.594;2023-08-17T02:35:36;3.08;;;2.50;;
51594;SDS011;37677;53.254;6.594;2023-08-17T02:38:05;7.53;;;3.00;;
51594;SDS011;37677;53.254;6.594;2023-08-17T02:40:31;5.43;;;2.30;;
51594;SDS011;37677;53.254;6.594;2023-08-17T02:43:00;5.63;;;2.35;;
51594;SDS011;37677;53.254;6.594;2023-08-17T02:45:28;6.00;;;2.78;;
51594;SDS011;37677;53.254;6.594;2023-08-17T02:48:10;4.10;;;2.63;;
51594;SDS011;37677;53.254;6.594;2023-08-17T02:50:39;4.82;;;2.40;;
51594;SDS011;37677;53.254;6.594;2023-08-17T02:53:15;6.13;;;3.05;;
51594;SDS011;37677;53.254;6.594;2023-08-17T02:55:49;4.47;;;2.35;;
51594;SDS011;37677;53.254;6.594;2023-08-17T02:58:17;4.82;;;2.58;;
51594;SDS011;37677;53.254;6.594;2023-08-17T03:00:44;5.97;;;2.38;;
51594;SDS011;37677;53.254;6.594;2023-08-17T03:03:13;5.75;;;2.78;;
51594;SDS011;37677;53.254;6.594;2023-08-17T03:05:39;5.07;;;2.50;;
51594;SDS011;37677;53.254;6.594;2023-08-17T03:08:06;5.03;;;2.42;;
51594;SDS011;37677;53.254;6.594;2023-08-17T03:10:34;6.43;;;2.58;;
51594;SDS011;37677;53.254;6.594;2023-08-17T03:13:01;5.18;;;2.40;;
51594;SDS011;37677;53.254;6.594;2023-08-17T03:15:27;7.30;;;2.60;;
51594;SDS011;37677;53.254;6.594;2023-08-17T03:17:54;5.47;;;2.10;;
51594;SDS011;37677;53.254;6.594;2023-08-17T03:20:20;5.35;;;2.40;;
51594;SDS011;37677;53.254;6.594;2023-08-17T03:22:46;7.45;;;3.03;;
51594;SDS011;37677;53.254;6.594;2023-08-17T03:25:12;7.03;;;2.63;;
51594;SDS011;37677;53.254;6.594;2023-08-17T03:27:38;4.22;;;2.20;;
51594;SDS011;37677;53.254;6.594;2023-08-17T03:30:05;6.32;;;2.60;;
51594;SDS011;37677;53.254;6.594;2023-08-17T03:32:31;5.65;;;2.00;;
51594;SDS011;37677;53.254;6.594;2023-08-17T03:34:57;6.10;;;2.53;;
51594;SDS011;37677;53.254;6.594;2023-08-17T03:37:23;5.25;;;2.25;;
51594;SDS011;37677;53.254;6.594;2023-08-17T03:39:59;5.70;;;1.98;;
51594;SDS011;37677;53.254;6.594;2023-08-17T03:42:26;5.35;;;2.30;;
51594;SDS011;37677;53.254;6.594;2023-08-17T03:44:54;4.15;;;2.33;;
51594;SDS011;37677;53.254;6.594;2023-08-17T03:47:20;4.65;;;2.20;;
51594;SDS011;37677;53.254;6.594;2023-08-17T03:49:51;5.07;;;2.45;;
51594;SDS011;37677;53.254;6.594;2023-08-17T03:52:21;7.13;;;2.28;;
51594;SDS011;37677;53.254;6.594;2023-08-17T03:54:47;4.88;;;2.10;;
51594;SDS011;37677;53.254;6.594;2023-08-17T03:57:14;5.20;;;2.33;;
51594;SDS011;37677;53.254;6.594;2023-08-17T03:59:42;4.00;;;2.30;;
51594;SDS011;37677;53.254;6.594;2023-08-17T04:02:08;6.13;;;2.50;;
51594;SDS011;37677;53.254;6.594;2023-08-17T04:04:37;6.40;;;2.33;;
51594;SDS011;37677;53.254;6.594;2023-08-17T04:07:03;7.57;;;2.60;;
51594;SDS011;37677;53.254;6.594;2023-08-17T04:09:35;5.68;;;2.90;;
51594;SDS011;37677;53.254;6.594;2023-08-17T04:12:01;7.53;;;3.00;;
51594;SDS011;37677;53.254;6.594;2023-08-17T04:14:30;8.23;;;2.95;;
51594;SDS011;37677;53.254;6.594;2023-08-17T04:17:05;4.72;;;2.60;;
51594;SDS011;37677;53.254;6.594;2023-08-17T04:19:33;4.68;;;2.40;;
51594;SDS011;37677;53.254;6.594;2023-08-17T04:22:00;5.65;;;2.80;;
51594;SDS011;37677;53.254;6.594;2023-08-17T04:24:38;5.65;;;2.83;;
51594;SDS011;37677;53.254;6.594;2023-08-17T04:27:07;5.80;;;2.65;;
51594;SDS011;37677;53.254;6.594;2023-08-17T04:29:34;4.88;;;2.60;;
51594;SDS011;37677;53.254;6.594;2023-08-17T04:32:00;4.60;;;2.38;;
51594;SDS011;37677;53.254;6.594;2023-08-17T04:34:45;3.63;;;2.00;;
51594;SDS011;37677;53.254;6.594;2023-08-17T04:37:14;5.35;;;2.70;;
51594;SDS011;37677;53.254;6.594;2023-08-17T04:39:45;7.03;;;2.40;;
51594;SDS011;37677;53.254;6.594;2023-08-17T04:42:13;5.53;;;2.60;;
51594;SDS011;37677;53.254;6.594;2023-08-17T04:44:39;5.03;;;2.47;;
51594;SDS011;37677;53.254;6.594;2023-08-17T04:47:10;4.80;;;2.08;;
51594;SDS011;37677;53.254;6.594;2023-08-17T04:49:36;4.53;;;2.10;;
51594;SDS011;37677;53.254;6.594;2023-08-17T04:52:03;4.03;;;2.17;;
51594;SDS011;37677;53.254;6.594;2023-08-17T04:54:29;6.97;;;2.67;;
51594;SDS011;37677;53.254;6.594;2023-08-17T04:56:59;6.07;;;2.50;;
51594;SDS011;37677;53.254;6.594;2023-08-17T04:59:27;5.95;;;2.22;;
51594;SDS011;37677;53.254;6.594;2023-08-17T05:01:56;5.45;;;2.40;;
51594;SDS011;37677;53.254;6.594;2023-08-17T05:04:23;4.03;;;2.42;;
51594;SDS011;37677;53.254;6.594;2023-08-17T05:06:51;5.60;;;2.38;;
51594;SDS011;37677;53.254;6.594;2023-08-17T05:09:19;6.38;;;2.22;;
51594;SDS011;37677;53.254;6.594;2023-08-17T05:11:46;4.70;;;2.58;;
51594;SDS011;37677;53.254;6.594;2023-08-17T05:14:16;5.97;;;2.20;;
51594;SDS011;37677;53.254;6.594;2023-08-17T05:16:51;3.85;;;2.00;;
51594;SDS011;37677;53.254;6.594;2023-08-17T05:19:21;4.75;;;2.55;;
51594;SDS011;37677;53.254;6.594;2023-08-17T05:21:53;5.53;;;2.08;;
51594;SDS011;37677;53.254;6.594;2023-08-17T05:24:19;3.65;;;2.38;;
51594;SDS011;37677;53.254;6.594;2023-08-17T05:26:51;5.55;;;2.33;;
51594;SDS011;37677;53.254;6.594;2023-08-17T05:29:19;5.35;;;2.50;;
51594;SDS011;37677;53.254;6.594;2023-08-17T05:34:37;5.88;;;2.22;;
51594;SDS011;37677;53.254;6.594;2023-08-17T05:37:09;4.05;;;2.13;;
51594;SDS011;37677;53.254;6.594;2023-08-17T05:39:35;6.25;;;2.30;;
51594;SDS011;37677;53.254;6.594;2023-08-17T05:42:01;5.95;;;2.30;;
51594;SDS011;37677;53.254;6.594;2023-08-17T05:44:30;4.78;;;2.42;;
51594;SDS011;37677;53.254;6.594;2023-08-17T05:46:59;4.85;;;2.22;;
51594;SDS011;37677;53.254;6.594;2023-08-17T05:49:26;5.88;;;2.33;;
51594;SDS011;37677;53.254;6.594;2023-08-17T05:51:57;6.95;;;2.22;;
51594;SDS011;37677;53.254;6.594;2023-08-17T05:54:23;7.38;;;2.30;;
51594;SDS011;37677;53.254;6.594;2023-08-17T05:56:49;8.35;;;2.47;;
51594;SDS011;37677;53.254;6.594;2023-08-17T05:59:18;6.15;;;2.30;;
51594;SDS011;37677;53.254;6.594;2023-08-17T06:01:44;3.53;;;1.83;;
51594;SDS011;37677;53.254;6.594;2023-08-17T06:04:10;8.10;;;2.10;;
51594;SDS011;37677;53.254;6.594;2023-08-17T06:06:40;6.70;;;2.28;;
51594;SDS011;37677;53.254;6.594;2023-08-17T06:09:07;5.50;;;2.17;;
51594;SDS011;37677;53.254;6.594;2023-08-17T06:11:34;6.22;;;2.25;;
51594;SDS011;37677;53.254;6.594;2023-08-17T06:14:00;7.20;;;2.30;;
51594;SDS011;37677;53.254;6.594;2023-08-17T06:16:27;4.63;;;1.98;;
51594;SDS011;37677;53.254;6.594;2023-08-17T06:18:56;8.73;;;2.40;;
51594;SDS011;37677;53.254;6.594;2023-08-17T06:21:22;7.43;;;2.40;;
51594;SDS011;37677;53.254;6.594;2023-08-17T06:23:48;8.95;;;2.63;;
51594;SDS011;37677;53.254;6.594;2023-08-17T06:26:14;8.07;;;2.05;;
51594;SDS011;37677;53.254;6.594;2023-08-17T06:28:41;6.55;;;2.10;;
51594;SDS011;37677;53.254;6.594;2023-08-17T06:31:07;7.15;;;2.00;;
51594;SDS011;37677;53.254;6.594;2023-08-17T06:33:33;7.05;;;1.95;;
51594;SDS011;37677;53.254;6.594;2023-08-17T06:35:59;5.60;;;2.00;;
51594;SDS011;37677;53.254;6.594;2023-08-17T06:38:29;6.53;;;2.20;;
51594;SDS011;37677;53.254;6.594;2023-08-17T06:40:56;5.28;;;1.90;;
51594;SDS011;37677;53.254;6.594;2023-08-17T06:43:22;4.80;;;1.83;;
51594;SDS011;37677;53.254;6.594;2023-08-17T06:45:48;6.03;;;1.67;;
51594;SDS011;37677;53.254;6.594;2023-08-17T06:48:14;3.92;;;1.60;;
51594;SDS011;37677;53.254;6.594;2023-08-17T06:50:41;5.15;;;2.05;;
51594;SDS011;37677;53.254;6.594;2023-08-17T06:53:07;7.25;;;2.00;;
51594;SDS011;37677;53.254;6.594;2023-08-17T06:55:33;3.83;;;1.55;;
51594;SDS011;37677;53.254;6.594;2023-08-17T06:57:59;7.47;;;2.03;;
51594;SDS011;37677;53.254;6.594;2023-08-17T07:00:26;4.88;;;1.60;;
51594;SDS011;37677;53.254;6.594;2023-08-17T07:02:55;5.07;;;1.70;;
51594;SDS011;37677;53.254;6.594;2023-08-17T07:05:21;7.43;;;2.22;;
51594;SDS011;37677;53.254;6.594;2023-08-17T07:07:47;7.45;;;1.80;;
51594;SDS011;37677;53.254;6.594;2023-08-17T07:10:18;4.90;;;1.60;;
51594;SDS011;37677;53.254;6.594;2023-08-17T07:12:44;7.38;;;2.05;;
51594;SDS011;37677;53.254;6.594;2023-08-17T07:15:10;8.73;;;1.83;;
51594;SDS011;37677;53.254;6.594;2023-08-17T07:17:36;6.43;;;1.88;;
51594;SDS011;37677;53.254;6.594;2023-08-17T07:20:03;4.93;;;1.73;;
51594;SDS011;37677;53.254;6.594;2023-08-17T07:22:30;4.97;;;1.55;;
51594;SDS011;37677;53.254;6.594;2023-08-17T07:24:56;5.65;;;1.63;;
51594;SDS011;37677;53.254;6.594;2023-08-17T07:27:22;4.28;;;1.65;;
51594;SDS011;37677;53.254;6.594;2023-08-17T07:29:49;5.90;;;1.98;;
51594;SDS011;37677;53.254;6.594;2023-08-17T07:32:15;3.40;;;1.58;;
51594;SDS011;37677;53.254;6.594;2023-08-17T07:34:41;6.40;;;1.83;;
51594;SDS011;37677;53.254;6.594;2023-08-17T07:37:07;11.13;;;2.13;;
51594;SDS011;37677;53.254;6.594;2023-08-17T07:39:34;5.75;;;1.70;;
51594;SDS011;37677;53.254;6.594;2023-08-17T07:42:00;6.63;;;2.00;;
51594;SDS011;37677;53.254;6.594;2023-08-17T07:44:26;4.82;;;1.70;;
51594;SDS011;37677;53.254;6.594;2023-08-17T07:46:57;6.40;;;1.60;;
51594;SDS011;37677;53.254;6.594;2023-08-17T07:49:27;4.35;;;1.70;;
51594;SDS011;37677;53.254;6.594;2023-08-17T07:51:53;7.78;;;1.73;;
51594;SDS011;37677;53.254;6.594;2023-08-17T07:54:19;4.63;;;2.00;;
51594;SDS011;37677;53.254;6.594;2023-08-17T07:56:45;3.42;;;1.50;;
51594;SDS011;37677;53.254;6.594;2023-08-17T07:59:11;4.60;;;1.65;;
51594;SDS011;37677;53.254;6.594;2023-08-17T08:01:38;3.70;;;1.60;;
51594;SDS011;37677;53.254;6.594;2023-08-17T08:04:05;5.55;;;1.52;;
51594;SDS011;37677;53.254;6.594;2023-08-17T08:06:34;4.30;;;1.48;;
51594;SDS011;37677;53.254;6.594;2023-08-17T08:09:01;6.55;;;1.60;;
51594;SDS011;37677;53.254;6.594;2023-08-17T08:11:29;4.35;;;1.48;;
51594;SDS011;37677;53.254;6.594;2023-08-17T08:13:56;7.05;;;1.50;;
51594;SDS011;37677;53.254;6.594;2023-08-17T08:16:22;5.22;;;1.67;;
51594;SDS011;37677;53.254;6.594;2023-08-17T08:18:49;7.95;;;1.45;;
51594;SDS011;37677;53.254;6.594;2023-08-17T08:21:15;3.90;;;1.50;;
51594;SDS011;37677;53.254;6.594;2023-08-17T08:23:41;4.55;;;1.67;;
51594;SDS011;37677;53.254;6.594;2023-08-17T08:26:07;3.50;;;1.60;;
51594;SDS011;37677;53.254;6.594;2023-08-17T08:28:33;5.10;;;1.70;;
51594;SDS011;37677;53.254;6.594;2023-08-17T08:31:03;4.45;;;1.50;;
51594;SDS011;37677;53.254;6.594;2023-08-17T08:33:29;5.85;;;1.90;;
51594;SDS011;37677;53.254;6.594;2023-08-17T08:35:59;4.68;;;1.67;;
51594;SDS011;37677;53.254;6.594;2023-08-17T08:38:25;4.32;;;1.45;;
51594;SDS011;37677;53.254;6.594;2023-08-17T08:40:54;8.38;;;1.75;;
51594;SDS011;37677;53.254;6.594;2023-08-17T08:43:20;5.13;;;1.63;;
51594;SDS011;37677;53.254;6.594;2023-08-17T08:45:46;5.07;;;1.60;;
51594;SDS011;37677;53.254;6.594;2023-08-17T08:48:18;6.45;;;1.67;;
51594;SDS011;37677;53.254;6.594;2023-08-17T08:50:44;7.13;;;1.58;;
51594;SDS011;37677;53.254;6.594;2023-08-17T08:53:14;7.03;;;1.40;;
51594;SDS011;37677;53.254;6.594;2023-08-17T08:55:43;7.13;;;1.80;;
51594;SDS011;37677;53.254;6.594;2023-08-17T08:58:11;3.70;;;1.30;;
51594;SDS011;37677;53.254;6.594;2023-08-17T09:00:37;3.78;;;1.65;;
51594;SDS011;37677;53.254;6.594;2023-08-17T09:03:04;3.38;;;1.45;;
51594;SDS011;37677;53.254;6.594;2023-08-17T09:05:31;4.38;;;1.65;;
51594;SDS011;37677;53.254;6.594;2023-08-17T09:07:59;6.05;;;1.85;;
51594;SDS011;37677;53.254;6.594;2023-08-17T09:10:29;5.32;;;1.60;;
51594;SDS011;37677;53.254;6.594;2023-08-17T09:12:55;4.95;;;1.70;;
51594;SDS011;37677;53.254;6.594;2023-08-17T09:15:24;4.50;;;1.75;;
51594;SDS011;37677;53.254;6.594;2023-08-17T09:17:50;4.28;;;1.67;;
51594;SDS011;37677;53.254;6.594;2023-08-17T09:20:38;8.35;;;1.70;;
51594;SDS011;37677;53.254;6.594;2023-08-17T09:23:08;7.55;;;1.88;;
51594;SDS011;37677;53.254;6.594;2023-08-17T09:25:37;4.55;;;1.58;;
51594;SDS011;37677;53.254;6.594;2023-08-17T09:28:16;7.50;;;1.70;;
51594;SDS011;37677;53.254;6.594;2023-08-17T09:30:49;5.60;;;1.40;;
51594;SDS011;37677;53.254;6.594;2023-08-17T09:33:16;7.60;;;1.77;;
51594;SDS011;37677;53.254;6.594;2023-08-17T09:35:43;4.28;;;1.50;;
51594;SDS011;37677;53.254;6.594;2023-08-17T09:38:09;2.70;;;1.25;;
51594;SDS011;37677;53.254;6.594;2023-08-17T09:40:36;4.00;;;1.75;;
51594;SDS011;37677;53.254;6.594;2023-08-17T09:43:04;6.95;;;1.70;;
51594;SDS011;37677;53.254;6.594;2023-08-17T09:45:31;4.43;;;1.50;;
51594;SDS011;37677;53.254;6.594;2023-08-17T09:48:00;6.45;;;1.58;;
51594;SDS011;37677;53.254;6.594;2023-08-17T09:50:26;5.15;;;1.45;;
51594;SDS011;37677;53.254;6.594;2023-08-17T09:52:53;4.95;;;1.60;;
51594;SDS011;37677;53.254;6.594;2023-08-17T09:55:22;4.88;;;1.70;;
51594;SDS011;37677;53.254;6.594;2023-08-17T09:57:56;5.43;;;1.65;;
51594;SDS011;37677;53.254;6.594;2023-08-17T10:00:23;3.78;;;1.30;;
51594;SDS011;37677;53.254;6.594;2023-08-17T10:02:50;6.93;;;1.90;;
51594;SDS011;37677;53.254;6.594;2023-08-17T10:05:18;5.80;;;1.80;;
51594;SDS011;37677;53.254;6.594;2023-08-17T10:07:46;8.18;;;1.88;;
51594;SDS011;37677;53.254;6.594;2023-08-17T10:10:14;4.85;;;1.80;;
51594;SDS011;37677;53.254;6.594;2023-08-17T10:12:48;5.43;;;1.52;;
51594;SDS011;37677;53.254;6.594;2023-08-17T10:15:15;5.13;;;1.50;;
51594;SDS011;37677;53.254;6.594;2023-08-17T10:20:15;5.75;;;1.88;;
51594;SDS011;37677;53.254;6.594;2023-08-17T10:22:49;5.50;;;1.65;;
51594;SDS011;37677;53.254;6.594;2023-08-17T10:25:19;5.38;;;1.80;;
51594;SDS011;37677;53.254;6.594;2023-08-17T10:27:48;6.22;;;1.70;;
51594;SDS011;37677;53.254;6.594;2023-08-17T10:30:20;4.25;;;1.60;;
51594;SDS011;37677;53.254;6.594;2023-08-17T10:32:49;6.93;;;1.52;;
51594;SDS011;37677;53.254;6.594;2023-08-17T10:35:15;9.20;;;2.00;;
51594;SDS011;37677;53.254;6.594;2023-08-17T10:37:42;7.95;;;1.80;;
51594;SDS011;37677;53.254;6.594;2023-08-17T10:40:09;9.35;;;2.00;;
51594;SDS011;37677;53.254;6.594;2023-08-17T10:42:35;4.88;;;1.58;;
51594;SDS011;37677;53.254;6.594;2023-08-17T10:45:24;5.72;;;2.00;;
51594;SDS011;37677;53.254;6.594;2023-08-17T10:47:48;4.55;;;1.70;;
51594;SDS011;37677;53.254;6.594;2023-08-17T10:50:24;7.82;;;2.28;;
51594;SDS011;37677;53.254;6.594;2023-08-17T10:52:54;5.05;;;1.70;;
51594;SDS011;37677;53.254;6.594;2023-08-17T10:55:39;6.57;;;1.75;;
51594;SDS011;37677;53.254;6.594;2023-08-17T10:58:06;6.88;;;1.98;;
51594;SDS011;37677;53.254;6.594;2023-08-17T11:00:33;6.45;;;2.05;;
51594;SDS011;37677;53.254;6.594;2023-08-17T11:03:03;7.32;;;2.10;;
51594;SDS011;37677;53.254;6.594;2023-08-17T11:05:42;6.45;;;1.80;;
51594;SDS011;37677;53.254;6.594;2023-08-17T11:08:23;4.72;;;1.83;;
51594;SDS011;37677;53.254;6.594;2023-08-17T11:11:06;5.18;;;1.85;;
51594;SDS011;37677;53.254;6.594;2023-08-17T11:13:37;6.72;;;1.80;;
51594;SDS011;37677;53.254;6.594;2023-08-17T11:16:03;6.85;;;1.92;;
51594;SDS011;37677;53.254;6.594;2023-08-17T11:18:30;4.50;;;1.95;;
51594;SDS011;37677;53.254;6.594;2023-08-17T11:20:56;5.10;;;1.83;;
51594;SDS011;37677;53.254;6.594;2023-08-17T11:23:23;6.32;;;2.10;;
51594;SDS011;37677;53.254;6.594;2023-08-17T11:25:49;8.13;;;2.08;;
51594;SDS011;37677;53.254;6.594;2023-08-17T11:28:16;6.90;;;2.00;;
51594;SDS011;37677;53.254;6.594;2023-08-17T11:30:42;5.70;;;1.98;;
51594;SDS011;37677;53.254;6.594;2023-08-17T11:33:08;12.35;;;2.58;;
51594;SDS011;37677;53.254;6.594;2023-08-17T11:35:37;6.72;;;2.05;;
51594;SDS011;37677;53.254;6.594;2023-08-17T11:38:04;6.20;;;1.60;;
51594;SDS011;37677;53.254;6.594;2023-08-17T11:40:31;3.15;;;1.50;;
51594;SDS011;37677;53.254;6.594;2023-08-17T11:42:57;5.70;;;1.77;;
51594;SDS011;37677;53.254;6.594;2023-08-17T11:45:25;7.03;;;1.88;;
51594;SDS011;37677;53.254;6.594;2023-08-17T11:47:51;9.80;;;2.30;;
51594;SDS011;37677;53.254;6.594;2023-08-17T11:50:18;5.57;;;2.00;;
51594;SDS011;37677;53.254;6.594;2023-08-17T11:52:45;7.90;;;2.05;;
51594;SDS011;37677;53.254;6.594;2023-08-17T11:55:13;10.20;;;2.08;;
51594;SDS011;37677;53.254;6.594;2023-08-17T11:57:43;9.50;;;2.28;;
51594;SDS011;37677;53.254;6.594;2023-08-17T12:00:10;7.90;;;2.28;;
51594;SDS011;37677;53.254;6.594;2023-08-17T12:02:38;6.45;;;2.10;;
51594;SDS011;37677;53.254;6.594;2023-08-17T12:05:11;7.40;;;2.03;;
51594;SDS011;37677;53.254;6.594;2023-08-17T12:07:40;11.95;;;2.05;;
51594;SDS011;37677;53.254;6.594;2023-08-17T12:10:07;5.00;;;1.90;;
51594;SDS011;37677;53.254;6.594;2023-08-17T12:12:36;7.25;;;2.33;;
51594;SDS011;37677;53.254;6.594;2023-08-17T12:15:06;5.57;;;1.83;;
51594;SDS011;37677;53.254;6.594;2023-08-17T12:17:40;5.15;;;1.95;;
51594;SDS011;37677;53.254;6.594;2023-08-17T12:20:14;10.35;;;2.28;;
51594;SDS011;37677;53.254;6.594;2023-08-17T12:22:41;6.75;;;1.75;;
51594;SDS011;37677;53.254;6.594;2023-08-17T12:25:08;5.35;;;1.95;;
51594;SDS011;37677;53.254;6.594;2023-08-17T12:27:35;7.72;;;2.33;;
51594;SDS011;37677;53.254;6.594;2023-08-17T12:30:04;8.23;;;2.28;;
51594;SDS011;37677;53.254;6.594;2023-08-17T12:32:31;6.63;;;2.10;;
51594;SDS011;37677;53.254;6.594;2023-08-17T12:34:57;5.20;;;2.25;;
51594;SDS011;37677;53.254;6.594;2023-08-17T12:37:23;7.00;;;2.13;;
51594;SDS011;37677;53.254;6.594;2023-08-17T12:39:49;8.63;;;2.15;;
51594;SDS011;37677;53.254;6.594;2023-08-17T12:42:16;2.67;;;1.60;;
51594;SDS011;37677;53.254;6.594;2023-08-17T12:44:43;4.40;;;2.03;;
51594;SDS011;37677;53.254;6.594;2023-08-17T12:47:09;6.13;;;2.10;;
51594;SDS011;37677;53.254;6.594;2023-08-17T12:49:36;5.63;;;2.20;;
51594;SDS011;37677;53.254;6.594;2023-08-17T12:52:02;8.07;;;2.03;;
51594;SDS011;37677;53.254;6.594;2023-08-17T12:54:28;10.63;;;2.13;;
51594;SDS011;37677;53.254;6.594;2023-08-17T12:56:54;5.05;;;2.00;;
51594;SDS011;37677;53.254;6.594;2023-08-17T12:59:24;8.10;;;2.42;;
51594;SDS011;37677;53.254;6.594;2023-08-17T13:01:50;6.05;;;2.08;;
51594;SDS011;37677;53.254;6.594;2023-08-17T13:04:19;6.32;;;1.80;;
51594;SDS011;37677;53.254;6.594;2023-08-17T13:06:46;4.28;;;1.80;;
51594;SDS011;37677;53.254;6.594;2023-08-17T13:09:13;4.68;;;1.70;;
51594;SDS011;37677;53.254;6.594;2023-08-17T13:11:41;4.25;;;1.67;;
51594;SDS011;37677;53.254;6.594;2023-08-17T13:14:07;9.50;;;2.42;;
51594;SDS011;37677;53.254;6.594;2023-08-17T13:16:33;6.03;;;2.20;;
51594;SDS011;37677;53.254;6.594;2023-08-17T13:18:59;7.18;;;2.00;;
51594;SDS011;37677;53.254;6.594;2023-08-17T13:21:25;6.05;;;2.30;;
51594;SDS011;37677;53.254;6.594;2023-08-17T13:23:51;4.30;;;1.80;;
51594;SDS011;37677;53.254;6.594;2023-08-17T13:26:21;7.13;;;2.20;;
51594;SDS011;37677;53.254;6.594;2023-08-17T13:28:51;5.10;;;2.08;;
51594;SDS011;37677;53.254;6.594;2023-08-17T13:31:17;4.28;;;1.85;;
51594;SDS011;37677;53.254;6.594;2023-08-17T13:33:43;7.45;;;2.20;;
51594;SDS011;37677;53.254;6.594;2023-08-17T13:36:10;5.72;;;1.92;;
51594;SDS011;37677;53.254;6.594;2023-08-17T13:38:42;8.20;;;2.17;;
51594;SDS011;37677;53.254;6.594;2023-08-17T13:41:10;5.07;;;2.42;;
51594;SDS011;37677;53.254;6.594;2023-08-17T13:43:39;8.27;;;2.90;;
51594;SDS011;37677;53.254;6.594;2023-08-17T13:46:06;4.95;;;2.35;;
51594;SDS011;37677;53.254;6.594;2023-08-17T13:48:35;8.27;;;2.10;;
51594;SDS011;37677;53.254;6.594;2023-08-17T13:51:05;7.15;;;2.17;;
51594;SDS011;37677;53.254;6.594;2023-08-17T13:53:31;7.25;;;2.55;;
51594;SDS011;37677;53.254;6.594;2023-08-17T13:55:58;5.82;;;2.65;;
51594;SDS011;37677;53.254;6.594;2023-08-17T13:58:25;5.55;;;2.05;;
51594;SDS011;37677;53.254;6.594;2023-08-17T14:00:51;5.88;;;2.35;;
51594;SDS011;37677;53.254;6.594;2023-08-17T14:03:17;4.55;;;1.88;;
51594;SDS011;37677;53.254;6.594;2023-08-17T14:05:43;6.20;;;2.63;;
51594;SDS011;37677;53.254;6.594;2023-08-17T14:08:10;3.80;;;1.95;;
51594;SDS011;37677;53.254;6.594;2023-08-17T14:10:38;4.07;;;2.20;;
51594;SDS011;37677;53.254;6.594;2023-08-17T14:13:04;6.55;;;2.38;;
51594;SDS011;37677;53.254;6.594;2023-08-17T14:15:30;6.07;;;2.90;;
51594;SDS011;37677;53.254;6.594;2023-08-17T14:17:56;8.27;;;2.90;;
51594;SDS011;37677;53.254;6.594;2023-08-17T14:20:22;6.25;;;2.40;;
51594;SDS011;37677;53.254;6.594;2023-08-17T14:22:49;6.45;;;2.00;;
51594;SDS011;37677;53.254;6.594;2023-08-17T14:25:15;7.20;;;2.17;;
51594;SDS011;37677;53.254;6.594;2023-08-17T14:27:41;7.00;;;2.38;;
51594;SDS011;37677;53.254;6.594;2023-08-17T14:30:10;5.93;;;2.20;;
51594;SDS011;37677;53.254;6.594;2023-08-17T14:32:36;4.93;;;2.20;;
51594;SDS011;37677;53.254;6.594;2023-08-17T14:35:05;5.80;;;2.60;;
51594;SDS011;37677;53.254;6.594;2023-08-17T14:37:31;4.43;;;2.00;;
51594;SDS011;37677;53.254;6.594;2023-08-17T14:39:57;6.32;;;1.98;;
51594;SDS011;37677;53.254;6.594;2023-08-17T14:42:28;6.72;;;2.45;;
51594;SDS011;37677;53.254;6.594;2023-08-17T14:44:54;5.03;;;2.42;;
51594;SDS011;37677;53.254;6.594;2023-08-17T14:47:20;5.07;;;2.35;;
51594;SDS011;37677;53.254;6.594;2023-08-17T14:49:46;7.28;;;2.95;;
51594;SDS011;37677;53.254;6.594;2023-08-17T14:52:13;7.38;;;2.47;;
51594;SDS011;37677;53.254;6.594;2023-08-17T14:54:39;6.43;;;2.72;;
51594;SDS011;37677;53.254;6.594;2023-08-17T14:57:06;4.55;;;2.53;;
51594;SDS011;37677;53.254;6.594;2023-08-17T14:59:32;6.55;;;2.95;;
51594;SDS011;37677;53.254;6.594;2023-08-17T15:01:58;6.85;;;2.85;;
51594;SDS011;37677;53.254;6.594;2023-08-17T15:04:24;9.10;;;2.53;;
51594;SDS011;37677;53.254;6.594;2023-08-17T15:06:51;8.93;;;3.00;;
51594;SDS011;37677;53.254;6.594;2023-08-17T15:09:22;6.72;;;2.65;;
51594;SDS011;37677;53.254;6.594;2023-08-17T15:11:58;6.88;;;2.35;;